sensor_id;sensor_type;location;lat;lon;timestamp;temperature;humidity
41756;DHT22;27435;48.480;9.258;2024-03-23T00:56:10;11.30;92.20
41756;DHT22;27435;48.480;9.258;2024-03-23T00:58:36;11.40;92.10
41756;DHT22;27435;48.480;9.258;2024-03-23T01:01:01;11.40;92.20
41756;DHT22;27435;48.480;9.258;2024-03-23T01:03:29;11.50;92.10
41756;DHT22;27435;48.480;9.258;2024-03-23T01:05:59;11.60;91.70
41756;DHT22;27435;48.480;9.258;2024-03-23T01:08:25;11.60;92.00
41756;DHT22;27435;48.480;9.258;2024-03-23T01:10:57;11.70;92.00
41756;DHT22;27435;48.480;9.258;2024-03-23T01:13:23;11.70;91.80
41756;DHT22;27435;48.480;9.258;2024-03-23T01:15:53;11.70;92.00
41756;DHT22;27435;48.480;9.258;2024-03-23T01:18:20;11.80;92.40
41756;DHT22;27435;48.480;9.258;2024-03-23T01:20:46;12.00;91.80
41756;DHT22;27435;48.480;9.258;2024-03-23T01:23:12;12.00;91.40
41756;DHT22;27435;48.480;9.258;2024-03-23T01:25:38;12.00;91.00
41756;DHT22;27435;48.480;9.258;2024-03-23T01:28:04;12.10;91.00
41756;DHT22;27435;48.480;9.258;2024-03-23T01:30:32;12.10;91.20
41756;DHT22;27435;48.480;9.258;2024-03-23T01:32:58;12.00;91.20
41756;DHT22;27435;48.480;9.258;2024-03-23T01:35:23;12.00;91.60
41756;DHT22;27435;48.480;9.258;2024-03-23T01:37:49;12.00;91.40
41756;DHT22;27435;48.480;9.258;2024-03-23T01:40:16;11.90;91.70
41756;DHT22;27435;48.480;9.258;2024-03-23T01:42:42;12.10;91.00
41756;DHT22;27435;48.480;9.258;2024-03-23T01:45:08;12.10;91.20
41756;DHT22;27435;48.480;9.258;2024-03-23T01:47:35;12.10;91.50
41756;DHT22;27435;48.480;9.258;2024-03-23T01:50:01;12.10;91.50
41756;DHT22;27435;48.480;9.258;2024-03-23T01:52:27;12.20;91.20
41756;DHT22;27435;48.480;9.258;2024-03-23T01:54:53;12.20;91.40
41756;DHT22;27435;48.480;9.258;2024-03-23T01:57:19;12.10;91.40
41756;DHT22;27435;48.480;9.258;2024-03-23T01:59:46;12.10;91.90
41756;DHT22;27435;48.480;9.258;2024-03-23T02:02:12;12.20;91.80
41756;DHT22;27435;48.480;9.258;2024-03-23T02:04:38;12.20;91.80
41756;DHT22;27435;48.480;9.258;2024-03-23T02:07:05;12.30;91.90
41756;DHT22;27435;48.480;9.258;2024-03-23T02:09:31;12.40;91.30
41756;DHT22;27435;48.480;9.258;2024-03-23T02:11:57;12.40;91.40
41756;DHT22;27435;48.480;9.258;2024-03-23T02:14:23;12.30;91.60
41756;DHT22;27435;48.480;9.258;2024-03-23T02:16:49;12.30;91.40
41756;DHT22;27435;48.480;9.258;2024-03-23T02:19:14;12.30;91.40
41756;DHT22;27435;48.480;9.258;2024-03-23T02:21:40;12.40;91.80
41756;DHT22;27435;48.480;9.258;2024-03-23T02:24:05;12.40;91.40
41756;DHT22;27435;48.480;9.258;2024-03-23T02:26:31;12.40;91.50
41756;DHT22;27435;48.480;9.258;2024-03-23T02:28:57;12.40;91.80
41756;DHT22;27435;48.480;9.258;2024-03-23T02:31:22;12.40;91.60
41756;DHT22;27435;48.480;9.258;2024-03-23T02:33:48;12.40;91.80
41756;DHT22;27435;48.480;9.258;2024-03-23T02:36:14;12.40;91.90
41756;DHT22;27435;48.480;9.258;2024-03-23T02:38:39;12.40;91.80
41756;DHT22;27435;48.480;9.258;2024-03-23T02:41:05;12.30;92.20
41756;DHT22;27435;48.480;9.258;2024-03-23T02:43:31;12.20;92.30
41756;DHT22;27435;48.480;9.258;2024-03-23T02:45:57;12.20;92.30
41756;DHT22;27435;48.480;9.258;2024-03-23T02:48:23;12.30;92.30
41756;DHT22;27435;48.480;9.258;2024-03-23T02:50:49;12.40;92.20
41756;DHT22;27435;48.480;9.258;2024-03-23T02:53:15;12.30;92.30
41756;DHT22;27435;48.480;9.258;2024-03-23T02:55:41;12.20;92.90
41756;DHT22;27435;48.480;9.258;2024-03-23T02:58:06;12.20;92.50
41756;DHT22;27435;48.480;9.258;2024-03-23T03:00:32;12.30;92.00
41756;DHT22;27435;48.480;9.258;2024-03-23T03:02:57;12.20;92.50
41756;DHT22;27435;48.480;9.258;2024-03-23T03:05:23;12.20;93.00
41756;DHT22;27435;48.480;9.258;2024-03-23T03:07:49;12.00;93.70
41756;DHT22;27435;48.480;9.258;2024-03-23T03:10:14;12.10;93.60
41756;DHT22;27435;48.480;9.258;2024-03-23T03:12:40;12.00;93.80
41756;DHT22;27435;48.480;9.258;2024-03-23T03:15:05;12.00;94.00
41756;DHT22;27435;48.480;9.258;2024-03-23T03:17:31;12.00;93.70
41756;DHT22;27435;48.480;9.258;2024-03-23T03:19:57;12.10;94.00
41756;DHT22;27435;48.480;9.258;2024-03-23T03:22:22;12.00;94.00
41756;DHT22;27435;48.480;9.258;2024-03-23T03:24:48;12.10;94.10
41756;DHT22;27435;48.480;9.258;2024-03-23T03:27:15;12.20;93.70
41756;DHT22;27435;48.480;9.258;2024-03-23T03:29:40;12.30;93.90
41756;DHT22;27435;48.480;9.258;2024-03-23T03:32:06;12.40;93.70
41756;DHT22;27435;48.480;9.258;2024-03-23T03:34:32;12.40;94.10
41756;DHT22;27435;48.480;9.258;2024-03-23T03:36:57;12.50;94.00
41756;DHT22;27435;48.480;9.258;2024-03-23T03:39:24;12.50;93.60
41756;DHT22;27435;48.480;9.258;2024-03-23T03:41:50;12.50;93.80
41756;DHT22;27435;48.480;9.258;2024-03-23T03:44:16;12.60;94.80
41756;DHT22;27435;48.480;9.258;2024-03-23T03:46:42;12.60;95.00
41756;DHT22;27435;48.480;9.258;2024-03-23T03:49:08;12.50;95.20
41756;DHT22;27435;48.480;9.258;2024-03-23T03:51:33;12.40;95.80
41756;DHT22;27435;48.480;9.258;2024-03-23T03:53:59;12.30;96.30
41756;DHT22;27435;48.480;9.258;2024-03-23T03:56:25;12.30;96.40
41756;DHT22;27435;48.480;9.258;2024-03-23T03:58:50;12.40;96.70
41756;DHT22;27435;48.480;9.258;2024-03-23T04:01:16;12.40;96.50
41756;DHT22;27435;48.480;9.258;2024-03-23T04:03:43;12.40;96.50
41756;DHT22;27435;48.480;9.258;2024-03-23T04:06:13;12.40;96.60
41756;DHT22;27435;48.480;9.258;2024-03-23T04:08:43;12.40;96.80
41756;DHT22;27435;48.480;9.258;2024-03-23T04:11:09;12.40;96.60
41756;DHT22;27435;48.480;9.258;2024-03-23T04:13:34;12.30;96.80
41756;DHT22;27435;48.480;9.258;2024-03-23T04:16:00;12.30;97.00
41756;DHT22;27435;48.480;9.258;2024-03-23T04:18:25;12.20;96.30
41756;DHT22;27435;48.480;9.258;2024-03-23T04:20:52;12.30;95.80
41756;DHT22;27435;48.480;9.258;2024-03-23T04:23:17;12.30;95.00
41756;DHT22;27435;48.480;9.258;2024-03-23T04:25:43;12.40;94.00
41756;DHT22;27435;48.480;9.258;2024-03-23T04:28:09;12.40;93.70
41756;DHT22;27435;48.480;9.258;2024-03-23T04:30:35;12.40;92.90
41756;DHT22;27435;48.480;9.258;2024-03-23T04:33:00;12.50;92.50
41756;DHT22;27435;48.480;9.258;2024-03-23T04:35:27;12.50;92.20
41756;DHT22;27435;48.480;9.258;2024-03-23T04:37:53;12.60;91.70
41756;DHT22;27435;48.480;9.258;2024-03-23T04:40:19;12.60;91.50
41756;DHT22;27435;48.480;9.258;2024-03-23T04:42:44;12.60;91.10
41756;DHT22;27435;48.480;9.258;2024-03-23T04:45:10;12.60;90.90
41756;DHT22;27435;48.480;9.258;2024-03-23T04:47:37;12.70;89.80
41756;DHT22;27435;48.480;9.258;2024-03-23T04:50:03;12.80;89.30
41756;DHT22;27435;48.480;9.258;2024-03-23T04:52:29;12.90;88.80
41756;DHT22;27435;48.480;9.258;2024-03-23T04:54:55;12.90;88.90
41756;DHT22;27435;48.480;9.258;2024-03-23T04:57:21;13.00;88.30
41756;DHT22;27435;48.480;9.258;2024-03-23T04:59:47;13.10;88.00
41756;DHT22;27435;48.480;9.258;2024-03-23T05:02:13;13.10;88.20
41756;DHT22;27435;48.480;9.258;2024-03-23T05:04:38;13.10;87.60
41756;DHT22;27435;48.480;9.258;2024-03-23T05:07:06;13.10;87.90
41756;DHT22;27435;48.480;9.258;2024-03-23T05:09:31;13.10;87.70
41756;DHT22;27435;48.480;9.258;2024-03-23T05:11:58;13.20;87.30
41756;DHT22;27435;48.480;9.258;2024-03-23T05:14:25;13.30;87.20
41756;DHT22;27435;48.480;9.258;2024-03-23T05:16:52;13.30;87.00
41756;DHT22;27435;48.480;9.258;2024-03-23T05:19:17;13.40;86.70
41756;DHT22;27435;48.480;9.258;2024-03-23T05:21:43;13.40;86.70
41756;DHT22;27435;48.480;9.258;2024-03-23T05:24:09;13.50;86.70
41756;DHT22;27435;48.480;9.258;2024-03-23T05:26:35;13.50;86.40
41756;DHT22;27435;48.480;9.258;2024-03-23T05:29:01;13.50;86.70
41756;DHT22;27435;48.480;9.258;2024-03-23T05:31:29;13.50;86.40
41756;DHT22;27435;48.480;9.258;2024-03-23T05:33:55;13.50;86.60
41756;DHT22;27435;48.480;9.258;2024-03-23T05:36:21;13.30;88.20
41756;DHT22;27435;48.480;9.258;2024-03-23T05:38:47;12.60;92.40
41756;DHT22;27435;48.480;9.258;2024-03-23T05:41:13;12.10;97.00
41756;DHT22;27435;48.480;9.258;2024-03-23T05:43:39;11.50;99.00
41756;DHT22;27435;48.480;9.258;2024-03-23T05:46:05;10.80;99.00
41756;DHT22;27435;48.480;9.258;2024-03-23T05:48:31;10.00;99.00
41756;DHT22;27435;48.480;9.258;2024-03-23T05:50:57;9.40;99.00
41756;DHT22;27435;48.480;9.258;2024-03-23T05:53:23;9.10;99.00
41756;DHT22;27435;48.480;9.258;2024-03-23T05:55:50;9.00;99.00
41756;DHT22;27435;48.480;9.258;2024-03-23T05:58:17;8.90;99.00
41756;DHT22;27435;48.480;9.258;2024-03-23T06:00:43;8.80;99.00
41756;DHT22;27435;48.480;9.258;2024-03-23T06:03:09;8.80;99.00
41756;DHT22;27435;48.480;9.258;2024-03-23T06:05:38;8.70;99.00
41756;DHT22;27435;48.480;9.258;2024-03-23T06:08:04;8.70;99.00
41756;DHT22;27435;48.480;9.258;2024-03-23T06:10:30;8.70;99.00
41756;DHT22;27435;48.480;9.258;2024-03-23T06:12:57;8.70;99.00
41756;DHT22;27435;48.480;9.258;2024-03-23T06:15:24;8.70;99.00
41756;DHT22;27435;48.480;9.258;2024-03-23T06:17:49;8.60;99.00
41756;DHT22;27435;48.480;9.258;2024-03-23T06:20:15;8.60;99.00
41756;DHT22;27435;48.480;9.258;2024-03-23T06:22:41;8.60;99.00
41756;DHT22;27435;48.480;9.258;2024-03-23T06:25:07;8.60;99.00
41756;DHT22;27435;48.480;9.258;2024-03-23T06:27:32;8.70;99.00
41756;DHT22;27435;48.480;9.258;2024-03-23T06:29:59;8.60;99.00
41756;DHT22;27435;48.480;9.258;2024-03-23T06:32:25;8.70;99.00
41756;DHT22;27435;48.480;9.258;2024-03-23T06:34:50;8.50;99.00
41756;DHT22;27435;48.480;9.258;2024-03-23T06:37:16;8.50;99.00
41756;DHT22;27435;48.480;9.258;2024-03-23T06:39:42;8.40;99.00
41756;DHT22;27435;48.480;9.258;2024-03-23T06:42:07;8.40;99.00
41756;DHT22;27435;48.480;9.258;2024-03-23T06:44:33;8.20;99.00
41756;DHT22;27435;48.480;9.258;2024-03-23T06:46:59;8.20;99.00
41756;DHT22;27435;48.480;9.258;2024-03-23T06:49:25;8.00;99.00
41756;DHT22;27435;48.480;9.258;2024-03-23T06:51:51;8.00;99.00
41756;DHT22;27435;48.480;9.258;2024-03-23T06:54:17;8.00;99.00
41756;DHT22;27435;48.480;9.258;2024-03-23T06:56:46;7.90;99.00
41756;DHT22;27435;48.480;9.258;2024-03-23T06:59:12;7.80;99.00
41756;DHT22;27435;48.480;9.258;2024-03-23T07:01:38;7.80;99.00
41756;DHT22;27435;48.480;9.258;2024-03-23T07:04:04;7.80;99.00
41756;DHT22;27435;48.480;9.258;2024-03-23T07:06:33;7.80;99.00
41756;DHT22;27435;48.480;9.258;2024-03-23T07:08:58;7.70;99.00
41756;DHT22;27435;48.480;9.258;2024-03-23T07:11:24;7.80;99.00
41756;DHT22;27435;48.480;9.258;2024-03-23T07:13:50;7.80;99.00
41756;DHT22;27435;48.480;9.258;2024-03-23T07:16:17;7.70;99.00
41756;DHT22;27435;48.480;9.258;2024-03-23T07:18:42;7.70;99.00
41756;DHT22;27435;48.480;9.258;2024-03-23T07:21:08;7.60;99.00
41756;DHT22;27435;48.480;9.258;2024-03-23T07:23:34;7.50;99.00
41756;DHT22;27435;48.480;9.258;2024-03-23T07:26:04;7.50;99.00
41756;DHT22;27435;48.480;9.258;2024-03-23T07:28:33;7.60;99.00
41756;DHT22;27435;48.480;9.258;2024-03-23T07:31:06;7.80;99.00
41756;DHT22;27435;48.480;9.258;2024-03-23T07:33:35;7.70;99.00
41756;DHT22;27435;48.480;9.258;2024-03-23T07:36:01;7.90;99.00
41756;DHT22;27435;48.480;9.258;2024-03-23T07:38:28;7.90;99.00
41756;DHT22;27435;48.480;9.258;2024-03-23T07:41:10;8.00;99.00
41756;DHT22;27435;48.480;9.258;2024-03-23T07:43:37;8.00;99.00
41756;DHT22;27435;48.480;9.258;2024-03-23T07:46:03;8.20;99.00
41756;DHT22;27435;48.480;9.258;2024-03-23T07:48:32;8.00;99.00
41756;DHT22;27435;48.480;9.258;2024-03-23T07:51:18;7.90;99.00
41756;DHT22;27435;48.480;9.258;2024-03-23T07:53:45;7.90;99.00
41756;DHT22;27435;48.480;9.258;2024-03-23T07:56:14;7.90;99.00
41756;DHT22;27435;48.480;9.258;2024-03-23T07:58:41;8.00;99.00
41756;DHT22;27435;48.480;9.258;2024-03-23T08:01:16;8.00;99.00
41756;DHT22;27435;48.480;9.258;2024-03-23T08:03:43;8.10;99.00
41756;DHT22;27435;48.480;9.258;2024-03-23T08:06:18;8.00;99.00
41756;DHT22;27435;48.480;9.258;2024-03-23T08:08:52;8.00;99.00
41756;DHT22;27435;48.480;9.258;2024-03-23T08:11:25;8.20;99.00
41756;DHT22;27435;48.480;9.258;2024-03-23T08:13:51;8.20;99.00
41756;DHT22;27435;48.480;9.258;2024-03-23T08:16:18;8.20;99.00
41756;DHT22;27435;48.480;9.258;2024-03-23T08:18:43;8.30;99.00
41756;DHT22;27435;48.480;9.258;2024-03-23T08:21:09;8.20;99.00
41756;DHT22;27435;48.480;9.258;2024-03-23T08:23:35;7.90;99.00
41756;DHT22;27435;48.480;9.258;2024-03-23T08:26:09;7.70;99.00
41756;DHT22;27435;48.480;9.258;2024-03-23T08:28:35;7.60;99.00
41756;DHT22;27435;48.480;9.258;2024-03-23T08:31:03;7.80;99.00
41756;DHT22;27435;48.480;9.258;2024-03-23T08:33:30;7.90;99.00
41756;DHT22;27435;48.480;9.258;2024-03-23T08:36:04;8.10;99.00
41756;DHT22;27435;48.480;9.258;2024-03-23T08:38:30;8.40;99.00
41756;DHT22;27435;48.480;9.258;2024-03-23T08:41:01;8.50;99.00
41756;DHT22;27435;48.480;9.258;2024-03-23T08:43:28;8.30;99.00
41756;DHT22;27435;48.480;9.258;2024-03-23T08:46:03;8.40;99.00
41756;DHT22;27435;48.480;9.258;2024-03-23T08:48:30;8.40;99.00
41756;DHT22;27435;48.480;9.258;2024-03-23T08:51:03;8.50;99.00
41756;DHT22;27435;48.480;9.258;2024-03-23T08:53:29;8.40;99.00
41756;DHT22;27435;48.480;9.258;2024-03-23T08:55:56;8.40;99.00
41756;DHT22;27435;48.480;9.258;2024-03-23T08:58:26;8.30;99.00
41756;DHT22;27435;48.480;9.258;2024-03-23T09:00:52;8.30;99.00
41756;DHT22;27435;48.480;9.258;2024-03-23T09:03:21;8.30;99.00
41756;DHT22;27435;48.480;9.258;2024-03-23T09:05:46;8.30;99.00
41756;DHT22;27435;48.480;9.258;2024-03-23T09:08:12;8.20;99.00
41756;DHT22;27435;48.480;9.258;2024-03-23T09:10:41;8.00;99.00
41756;DHT22;27435;48.480;9.258;2024-03-23T09:13:07;7.90;99.00
41756;DHT22;27435;48.480;9.258;2024-03-23T09:15:46;8.10;99.00
41756;DHT22;27435;48.480;9.258;2024-03-23T09:18:12;8.40;99.00
41756;DHT22;27435;48.480;9.258;2024-03-23T09:20:37;8.50;99.00
41756;DHT22;27435;48.480;9.258;2024-03-23T09:23:03;8.20;97.70
41756;DHT22;27435;48.480;9.258;2024-03-23T09:25:28;8.00;98.40
41756;DHT22;27435;48.480;9.258;2024-03-23T09:27:54;8.00;99.00
41756;DHT22;27435;48.480;9.258;2024-03-23T09:30:20;8.00;97.90
41756;DHT22;27435;48.480;9.258;2024-03-23T09:32:46;7.90;99.00
41756;DHT22;27435;48.480;9.258;2024-03-23T09:35:11;7.80;98.50
41756;DHT22;27435;48.480;9.258;2024-03-23T09:37:38;7.90;99.00
41756;DHT22;27435;48.480;9.258;2024-03-23T09:40:08;8.00;98.20
41756;DHT22;27435;48.480;9.258;2024-03-23T09:42:34;8.20;99.00
41756;DHT22;27435;48.480;9.258;2024-03-23T09:45:00;8.10;99.00
41756;DHT22;27435;48.480;9.258;2024-03-23T09:47:26;7.80;99.00
41756;DHT22;27435;48.480;9.258;2024-03-23T09:49:52;7.80;99.00
41756;DHT22;27435;48.480;9.258;2024-03-23T09:52:19;7.70;99.00
41756;DHT22;27435;48.480;9.258;2024-03-23T09:54:45;7.80;99.00
41756;DHT22;27435;48.480;9.258;2024-03-23T09:57:10;7.80;99.00
41756;DHT22;27435;48.480;9.258;2024-03-23T09:59:36;7.70;99.00
41756;DHT22;27435;48.480;9.258;2024-03-23T10:02:01;7.90;99.00
41756;DHT22;27435;48.480;9.258;2024-03-23T10:04:41;8.10;99.00
41756;DHT22;27435;48.480;9.258;2024-03-23T10:07:14;8.30;99.00
41756;DHT22;27435;48.480;9.258;2024-03-23T10:09:40;8.30;98.40
41756;DHT22;27435;48.480;9.258;2024-03-23T10:12:14;8.30;97.80
41756;DHT22;27435;48.480;9.258;2024-03-23T10:14:40;8.50;97.10
41756;DHT22;27435;48.480;9.258;2024-03-23T10:17:20;8.70;97.70
41756;DHT22;27435;48.480;9.258;2024-03-23T10:19:51;8.70;94.30
41756;DHT22;27435;48.480;9.258;2024-03-23T10:22:21;8.90;94.40
41756;DHT22;27435;48.480;9.258;2024-03-23T10:24:48;9.00;94.20
41756;DHT22;27435;48.480;9.258;2024-03-23T10:27:21;9.10;93.70
41756;DHT22;27435;48.480;9.258;2024-03-23T10:29:48;9.40;93.80
41756;DHT22;27435;48.480;9.258;2024-03-23T10:32:17;9.40;93.10
41756;DHT22;27435;48.480;9.258;2024-03-23T10:34:43;9.30;92.50
41756;DHT22;27435;48.480;9.258;2024-03-23T10:37:09;9.10;91.90
41756;DHT22;27435;48.480;9.258;2024-03-23T10:39:40;9.20;92.10
41756;DHT22;27435;48.480;9.258;2024-03-23T10:42:07;9.30;90.70
41756;DHT22;27435;48.480;9.258;2024-03-23T10:44:33;9.40;90.50
41756;DHT22;27435;48.480;9.258;2024-03-23T10:47:01;9.60;87.20
41756;DHT22;27435;48.480;9.258;2024-03-23T10:49:31;9.60;87.80
41756;DHT22;27435;48.480;9.258;2024-03-23T10:52:04;9.90;85.90
41756;DHT22;27435;48.480;9.258;2024-03-23T10:54:31;10.30;82.00
41756;DHT22;27435;48.480;9.258;2024-03-23T10:57:13;10.50;80.70
41756;DHT22;27435;48.480;9.258;2024-03-23T10:59:40;10.90;79.60
41756;DHT22;27435;48.480;9.258;2024-03-23T11:02:06;10.90;78.70
41756;DHT22;27435;48.480;9.258;2024-03-23T11:04:37;10.80;77.50
41756;DHT22;27435;48.480;9.258;2024-03-23T11:09:52;10.00;78.40
41756;DHT22;27435;48.480;9.258;2024-03-23T11:12:26;9.10;89.90
41756;DHT22;27435;48.480;9.258;2024-03-23T11:15:03;6.30;99.00
41756;DHT22;27435;48.480;9.258;2024-03-23T11:17:29;5.00;99.00
41756;DHT22;27435;48.480;9.258;2024-03-23T11:19:59;4.90;99.00
41756;DHT22;27435;48.480;9.258;2024-03-23T11:22:44;5.10;99.00
41756;DHT22;27435;48.480;9.258;2024-03-23T11:27:40;5.30;99.00
41756;DHT22;27435;48.480;9.258;2024-03-23T11:30:12;5.40;99.00
41756;DHT22;27435;48.480;9.258;2024-03-23T11:32:39;5.70;99.00
41756;DHT22;27435;48.480;9.258;2024-03-23T11:35:05;5.90;99.00
41756;DHT22;27435;48.480;9.258;2024-03-23T11:37:31;5.90;99.00
41756;DHT22;27435;48.480;9.258;2024-03-23T11:39:56;5.80;99.00
41756;DHT22;27435;48.480;9.258;2024-03-23T11:42:22;5.90;99.00
41756;DHT22;27435;48.480;9.258;2024-03-23T11:44:47;6.00;99.00
41756;DHT22;27435;48.480;9.258;2024-03-23T11:47:13;6.20;99.00
41756;DHT22;27435;48.480;9.258;2024-03-23T11:49:39;6.50;99.00
41756;DHT22;27435;48.480;9.258;2024-03-23T11:52:06;6.70;99.00
41756;DHT22;27435;48.480;9.258;2024-03-23T11:54:32;6.80;99.00
41756;DHT22;27435;48.480;9.258;2024-03-23T11:59:39;6.90;99.00
41756;DHT22;27435;48.480;9.258;2024-03-23T12:02:12;6.80;99.00
41756;DHT22;27435;48.480;9.258;2024-03-23T12:04:41;6.70;99.00
41756;DHT22;27435;48.480;9.258;2024-03-23T12:09:36;6.60;99.00
41756;DHT22;27435;48.480;9.258;2024-03-23T12:12:20;6.60;99.00
41756;DHT22;27435;48.480;9.258;2024-03-23T12:15:02;6.40;99.00
41756;DHT22;27435;48.480;9.258;2024-03-23T12:17:27;6.30;99.00
41756;DHT22;27435;48.480;9.258;2024-03-23T12:19:53;6.20;99.00
41756;DHT22;27435;48.480;9.258;2024-03-23T12:22:22;6.20;99.00
41756;DHT22;27435;48.480;9.258;2024-03-23T12:24:49;6.20;99.00
41756;DHT22;27435;48.480;9.258;2024-03-23T12:27:14;6.20;99.00
41756;DHT22;27435;48.480;9.258;2024-03-23T12:29:41;6.20;99.00
41756;DHT22;27435;48.480;9.258;2024-03-23T12:32:11;6.10;99.00
41756;DHT22;27435;48.480;9.258;2024-03-23T12:34:37;5.90;99.00
41756;DHT22;27435;48.480;9.258;2024-03-23T12:37:03;5.90;99.00
41756;DHT22;27435;48.480;9.258;2024-03-23T12:39:29;5.70;99.00
41756;DHT22;27435;48.480;9.258;2024-03-23T12:41:55;5.90;99.00
41756;DHT22;27435;48.480;9.258;2024-03-23T12:44:20;6.00;99.00
41756;DHT22;27435;48.480;9.258;2024-03-23T12:46:46;6.20;99.00
41756;DHT22;27435;48.480;9.258;2024-03-23T12:49:12;6.40;99.00
41756;DHT22;27435;48.480;9.258;2024-03-23T12:51:38;6.70;99.00
41756;DHT22;27435;48.480;9.258;2024-03-23T12:54:04;7.00;99.00
41756;DHT22;27435;48.480;9.258;2024-03-23T12:56:30;7.40;99.00
41756;DHT22;27435;48.480;9.258;2024-03-23T12:58:58;7.50;99.00
41756;DHT22;27435;48.480;9.258;2024-03-23T13:01:24;7.50;99.00
41756;DHT22;27435;48.480;9.258;2024-03-23T13:03:50;7.80;99.00
41756;DHT22;27435;48.480;9.258;2024-03-23T13:06:16;8.20;99.00
41756;DHT22;27435;48.480;9.258;2024-03-23T13:08:46;8.50;97.90
41756;DHT22;27435;48.480;9.258;2024-03-23T13:11:13;8.70;97.20
41756;DHT22;27435;48.480;9.258;2024-03-23T13:13:40;8.90;96.10
41756;DHT22;27435;48.480;9.258;2024-03-23T13:16:06;8.40;95.60
41756;DHT22;27435;48.480;9.258;2024-03-23T13:18:32;8.30;96.70
41756;DHT22;27435;48.480;9.258;2024-03-23T13:20:58;8.50;97.00
41756;DHT22;27435;48.480;9.258;2024-03-23T13:23:24;8.60;95.20
41756;DHT22;27435;48.480;9.258;2024-03-23T13:25:55;8.70;95.60
41756;DHT22;27435;48.480;9.258;2024-03-23T13:28:24;8.80;94.10
41756;DHT22;27435;48.480;9.258;2024-03-23T13:30:53;9.00;94.50
41756;DHT22;27435;48.480;9.258;2024-03-23T13:33:19;9.20;94.00
41756;DHT22;27435;48.480;9.258;2024-03-23T13:35:55;9.30;93.20
41756;DHT22;27435;48.480;9.258;2024-03-23T13:38:22;9.50;94.00
41756;DHT22;27435;48.480;9.258;2024-03-23T13:43:20;9.20;92.10
41756;DHT22;27435;48.480;9.258;2024-03-23T13:45:47;9.30;91.90
41756;DHT22;27435;48.480;9.258;2024-03-23T13:48:15;8.90;88.90
41756;DHT22;27435;48.480;9.258;2024-03-23T13:50:41;8.70;90.20
41756;DHT22;27435;48.480;9.258;2024-03-23T13:53:06;8.60;89.90
41756;DHT22;27435;48.480;9.258;2024-03-23T13:55:33;8.70;89.70
41756;DHT22;27435;48.480;9.258;2024-03-23T13:57:59;9.10;88.30
41756;DHT22;27435;48.480;9.258;2024-03-23T14:00:24;9.10;87.60
41756;DHT22;27435;48.480;9.258;2024-03-23T14:02:50;9.20;88.80
41756;DHT22;27435;48.480;9.258;2024-03-23T14:05:16;9.40;89.90
41756;DHT22;27435;48.480;9.258;2024-03-23T14:07:41;9.60;89.20
41756;DHT22;27435;48.480;9.258;2024-03-23T14:10:07;9.90;89.80
41756;DHT22;27435;48.480;9.258;2024-03-23T14:12:36;9.80;87.40
41756;DHT22;27435;48.480;9.258;2024-03-23T14:15:05;9.60;87.40
41756;DHT22;27435;48.480;9.258;2024-03-23T14:17:31;9.30;88.40
41756;DHT22;27435;48.480;9.258;2024-03-23T14:19:57;8.90;88.50
41756;DHT22;27435;48.480;9.258;2024-03-23T14:22:29;8.80;87.10
41756;DHT22;27435;48.480;9.258;2024-03-23T14:24:55;8.60;85.80
41756;DHT22;27435;48.480;9.258;2024-03-23T14:27:21;8.40;88.00
41756;DHT22;27435;48.480;9.258;2024-03-23T14:29:49;8.00;90.30
41756;DHT22;27435;48.480;9.258;2024-03-23T14:32:15;8.10;91.10
41756;DHT22;27435;48.480;9.258;2024-03-23T14:34:41;8.20;91.60
41756;DHT22;27435;48.480;9.258;2024-03-23T14:37:07;8.20;88.60
41756;DHT22;27435;48.480;9.258;2024-03-23T14:39:33;8.00;88.70
41756;DHT22;27435;48.480;9.258;2024-03-23T14:42:03;7.90;90.60
41756;DHT22;27435;48.480;9.258;2024-03-23T14:44:29;7.80;90.90
41756;DHT22;27435;48.480;9.258;2024-03-23T14:46:54;7.70;90.50
41756;DHT22;27435;48.480;9.258;2024-03-23T14:49:21;7.50;90.30
41756;DHT22;27435;48.480;9.258;2024-03-23T14:51:46;7.30;92.20
41756;DHT22;27435;48.480;9.258;2024-03-23T14:54:12;7.00;99.00
41756;DHT22;27435;48.480;9.258;2024-03-23T14:56:38;7.30;99.00
41756;DHT22;27435;48.480;9.258;2024-03-23T14:59:04;7.80;99.00
41756;DHT22;27435;48.480;9.258;2024-03-23T15:01:31;7.90;99.00
41756;DHT22;27435;48.480;9.258;2024-03-23T15:03:57;7.60;99.00
41756;DHT22;27435;48.480;9.258;2024-03-23T15:06:23;7.30;99.00
41756;DHT22;27435;48.480;9.258;2024-03-23T15:08:48;7.30;99.00
41756;DHT22;27435;48.480;9.258;2024-03-23T15:11:14;7.10;99.00
41756;DHT22;27435;48.480;9.258;2024-03-23T15:13:43;6.10;99.00
41756;DHT22;27435;48.480;9.258;2024-03-23T15:16:09;5.10;99.00
41756;DHT22;27435;48.480;9.258;2024-03-23T15:18:35;5.10;99.00
41756;DHT22;27435;48.480;9.258;2024-03-23T15:21:02;5.30;99.00
41756;DHT22;27435;48.480;9.258;2024-03-23T15:23:29;5.50;99.00
41756;DHT22;27435;48.480;9.258;2024-03-23T15:28:24;6.90;99.00
41756;DHT22;27435;48.480;9.258;2024-03-23T15:30:52;7.30;99.00
41756;DHT22;27435;48.480;9.258;2024-03-23T15:33:18;8.10;99.00
41756;DHT22;27435;48.480;9.258;2024-03-23T15:35:44;8.50;99.00
41756;DHT22;27435;48.480;9.258;2024-03-23T15:38:10;8.70;99.00
41756;DHT22;27435;48.480;9.258;2024-03-23T15:40:36;8.70;99.00
41756;DHT22;27435;48.480;9.258;2024-03-23T15:43:01;7.90;99.00
41756;DHT22;27435;48.480;9.258;2024-03-23T15:45:27;7.30;99.00
41756;DHT22;27435;48.480;9.258;2024-03-23T15:47:53;6.90;99.00
41756;DHT22;27435;48.480;9.258;2024-03-23T15:50:18;6.80;99.00
41756;DHT22;27435;48.480;9.258;2024-03-23T15:52:44;6.70;99.00
41756;DHT22;27435;48.480;9.258;2024-03-23T15:55:09;6.80;99.00
41756;DHT22;27435;48.480;9.258;2024-03-23T15:57:36;6.80;99.00
41756;DHT22;27435;48.480;9.258;2024-03-23T16:00:02;6.80;99.00
41756;DHT22;27435;48.480;9.258;2024-03-23T16:02:28;6.70;99.00
41756;DHT22;27435;48.480;9.258;2024-03-23T16:04:54;6.70;99.00
41756;DHT22;27435;48.480;9.258;2024-03-23T16:07:21;7.00;99.00
41756;DHT22;27435;48.480;9.258;2024-03-23T16:09:47;7.60;99.00
41756;DHT22;27435;48.480;9.258;2024-03-23T16:12:12;8.70;99.00
41756;DHT22;27435;48.480;9.258;2024-03-23T16:14:38;9.30;99.00
41756;DHT22;27435;48.480;9.258;2024-03-23T16:17:03;9.70;96.40
41756;DHT22;27435;48.480;9.258;2024-03-23T16:19:29;9.30;96.80
41756;DHT22;27435;48.480;9.258;2024-03-23T16:21:55;8.40;98.80
41756;DHT22;27435;48.480;9.258;2024-03-23T16:24:21;7.90;99.00
41756;DHT22;27435;48.480;9.258;2024-03-23T16:26:47;7.80;99.00
41756;DHT22;27435;48.480;9.258;2024-03-23T16:29:12;7.30;99.00
41756;DHT22;27435;48.480;9.258;2024-03-23T16:31:38;7.10;99.00
41756;DHT22;27435;48.480;9.258;2024-03-23T16:34:04;6.90;99.00
41756;DHT22;27435;48.480;9.258;2024-03-23T16:36:30;6.80;99.00
41756;DHT22;27435;48.480;9.258;2024-03-23T16:38:55;6.70;99.00
41756;DHT22;27435;48.480;9.258;2024-03-23T16:41:21;6.60;99.00
41756;DHT22;27435;48.480;9.258;2024-03-23T16:43:46;6.50;99.00
41756;DHT22;27435;48.480;9.258;2024-03-23T16:46:15;6.50;99.00
41756;DHT22;27435;48.480;9.258;2024-03-23T16:48:42;6.80;99.00